sensor_id;sensor_type;location;lat;lon;timestamp;temperature;humidity
15328;DHT22;7764;51.430;6.840;2023-07-28T00:01:58;18.30;99.90
15328;DHT22;7764;51.430;6.840;2023-07-28T00:04:25;18.20;99.90
15328;DHT22;7764;51.430;6.840;2023-07-28T00:06:52;18.30;99.90
15328;DHT22;7764;51.430;6.840;2023-07-28T00:09:18;18.30;99.90
15328;DHT22;7764;51.430;6.840;2023-07-28T00:11:45;18.20;99.90
15328;DHT22;7764;51.430;6.840;2023-07-28T00:14:12;18.30;99.90
15328;DHT22;7764;51.430;6.840;2023-07-28T00:16:39;18.30;99.90
15328;DHT22;7764;51.430;6.840;2023-07-28T00:19:08;18.30;99.90
15328;DHT22;7764;51.430;6.840;2023-07-28T00:21:35;18.30;99.90
15328;DHT22;7764;51.430;6.840;2023-07-28T00:24:02;18.30;99.90
15328;DHT22;7764;51.430;6.840;2023-07-28T00:26:28;18.30;99.90
15328;DHT22;7764;51.430;6.840;2023-07-28T00:28:55;18.30;99.90
15328;DHT22;7764;51.430;6.840;2023-07-28T00:31:23;18.30;99.90
15328;DHT22;7764;51.430;6.840;2023-07-28T00:33:50;18.30;99.90
15328;DHT22;7764;51.430;6.840;2023-07-28T00:36:18;18.30;99.90
15328;DHT22;7764;51.430;6.840;2023-07-28T00:38:45;18.30;99.90
15328;DHT22;7764;51.430;6.840;2023-07-28T00:41:12;18.30;99.90
15328;DHT22;7764;51.430;6.840;2023-07-28T00:43:39;18.30;99.90
15328;DHT22;7764;51.430;6.840;2023-07-28T00:46:06;18.30;99.90
15328;DHT22;7764;51.430;6.840;2023-07-28T00:48:33;18.30;99.90
15328;DHT22;7764;51.430;6.840;2023-07-28T00:51:00;18.30;99.90
15328;DHT22;7764;51.430;6.840;2023-07-28T00:53:29;18.30;99.90
15328;DHT22;7764;51.430;6.840;2023-07-28T00:55:56;18.30;99.90
15328;DHT22;7764;51.430;6.840;2023-07-28T00:58:23;18.30;99.90
15328;DHT22;7764;51.430;6.840;2023-07-28T01:00:50;18.40;99.90
15328;DHT22;7764;51.430;6.840;2023-07-28T01:03:18;18.30;99.90
15328;DHT22;7764;51.430;6.840;2023-07-28T01:06:00;18.40;99.90
15328;DHT22;7764;51.430;6.840;2023-07-28T01:08:35;18.40;99.90
15328;DHT22;7764;51.430;6.840;2023-07-28T01:11:05;18.30;99.90
15328;DHT22;7764;51.430;6.840;2023-07-28T01:13:32;18.40;99.90
15328;DHT22;7764;51.430;6.840;2023-07-28T01:16:00;18.40;99.90
15328;DHT22;7764;51.430;6.840;2023-07-28T01:18:27;18.40;99.90
15328;DHT22;7764;51.430;6.840;2023-07-28T01:20:54;18.40;99.90
15328;DHT22;7764;51.430;6.840;2023-07-28T01:23:29;18.40;99.90
15328;DHT22;7764;51.430;6.840;2023-07-28T01:26:05;18.40;99.90
15328;DHT22;7764;51.430;6.840;2023-07-28T01:28:35;18.40;99.90
15328;DHT22;7764;51.430;6.840;2023-07-28T01:31:03;17.30;99.90
15328;DHT22;7764;51.430;6.840;2023-07-28T01:33:29;18.40;99.90
15328;DHT22;7764;51.430;6.840;2023-07-28T01:35:56;18.30;99.90
15328;DHT22;7764;51.430;6.840;2023-07-28T01:38:24;18.40;99.90
15328;DHT22;7764;51.430;6.840;2023-07-28T01:43:18;18.30;99.90
15328;DHT22;7764;51.430;6.840;2023-07-28T01:45:46;17.90;99.90
15328;DHT22;7764;51.430;6.840;2023-07-28T01:48:13;18.70;99.90
15328;DHT22;7764;51.430;6.840;2023-07-28T01:50:40;18.30;99.90
15328;DHT22;7764;51.430;6.840;2023-07-28T01:53:07;18.30;99.90
15328;DHT22;7764;51.430;6.840;2023-07-28T01:55:34;18.40;99.90
15328;DHT22;7764;51.430;6.840;2023-07-28T01:58:01;18.30;99.90
15328;DHT22;7764;51.430;6.840;2023-07-28T02:00:28;18.30;99.90
15328;DHT22;7764;51.430;6.840;2023-07-28T02:02:56;19.00;99.90
15328;DHT22;7764;51.430;6.840;2023-07-28T02:05:24;18.30;99.90
15328;DHT22;7764;51.430;6.840;2023-07-28T02:07:51;18.30;99.90
15328;DHT22;7764;51.430;6.840;2023-07-28T02:10:18;18.40;99.90
15328;DHT22;7764;51.430;6.840;2023-07-28T02:12:45;18.20;99.90
15328;DHT22;7764;51.430;6.840;2023-07-28T02:15:12;18.20;99.90
15328;DHT22;7764;51.430;6.840;2023-07-28T02:17:39;18.20;99.90
15328;DHT22;7764;51.430;6.840;2023-07-28T02:20:08;18.30;99.90
15328;DHT22;7764;51.430;6.840;2023-07-28T02:22:36;18.30;99.90
15328;DHT22;7764;51.430;6.840;2023-07-28T02:25:03;18.30;99.90
15328;DHT22;7764;51.430;6.840;2023-07-28T02:27:30;18.30;99.90
15328;DHT22;7764;51.430;6.840;2023-07-28T02:42:14;18.50;99.90
15328;DHT22;7764;51.430;6.840;2023-07-28T02:44:41;18.50;99.90
15328;DHT22;7764;51.430;6.840;2023-07-28T02:47:08;18.40;99.90
15328;DHT22;7764;51.430;6.840;2023-07-28T02:49:34;18.40;99.90
15328;DHT22;7764;51.430;6.840;2023-07-28T02:52:01;18.40;99.90
15328;DHT22;7764;51.430;6.840;2023-07-28T02:54:30;18.40;99.90
15328;DHT22;7764;51.430;6.840;2023-07-28T02:56:57;18.40;99.90
15328;DHT22;7764;51.430;6.840;2023-07-28T02:59:24;18.40;99.90
15328;DHT22;7764;51.430;6.840;2023-07-28T03:01:51;18.40;99.90
15328;DHT22;7764;51.430;6.840;2023-07-28T03:04:18;18.50;99.90
15328;DHT22;7764;51.430;6.840;2023-07-28T03:06:46;18.50;99.90
15328;DHT22;7764;51.430;6.840;2023-07-28T03:09:13;18.50;99.90
15328;DHT22;7764;51.430;6.840;2023-07-28T03:11:42;18.40;99.90
15328;DHT22;7764;51.430;6.840;2023-07-28T03:14:09;18.50;99.90
15328;DHT22;7764;51.430;6.840;2023-07-28T03:16:35;18.50;99.90
15328;DHT22;7764;51.430;6.840;2023-07-28T03:19:02;18.60;99.90
15328;DHT22;7764;51.430;6.840;2023-07-28T03:21:30;18.50;99.90
15328;DHT22;7764;51.430;6.840;2023-07-28T03:23:57;18.50;99.90
15328;DHT22;7764;51.430;6.840;2023-07-28T03:26:24;18.50;99.90
15328;DHT22;7764;51.430;6.840;2023-07-28T03:28:52;18.50;99.90
15328;DHT22;7764;51.430;6.840;2023-07-28T03:31:19;18.60;99.90
15328;DHT22;7764;51.430;6.840;2023-07-28T03:33:46;18.50;99.90
15328;DHT22;7764;51.430;6.840;2023-07-28T03:36:13;18.50;99.90
15328;DHT22;7764;51.430;6.840;2023-07-28T03:38:40;18.50;99.90
15328;DHT22;7764;51.430;6.840;2023-07-28T03:41:07;18.50;99.90
15328;DHT22;7764;51.430;6.840;2023-07-28T03:43:35;18.40;99.90
15328;DHT22;7764;51.430;6.840;2023-07-28T03:46:04;18.50;99.90
15328;DHT22;7764;51.430;6.840;2023-07-28T03:48:30;18.50;99.90
15328;DHT22;7764;51.430;6.840;2023-07-28T03:50:57;18.50;99.90
15328;DHT22;7764;51.430;6.840;2023-07-28T03:53:24;18.60;99.90
15328;DHT22;7764;51.430;6.840;2023-07-28T03:55:51;18.60;99.90
15328;DHT22;7764;51.430;6.840;2023-07-28T03:58:19;18.60;99.90
15328;DHT22;7764;51.430;6.840;2023-07-28T04:00:46;18.50;99.90
15328;DHT22;7764;51.430;6.840;2023-07-28T04:03:14;18.50;99.90
15328;DHT22;7764;51.430;6.840;2023-07-28T04:08:08;18.50;99.90
15328;DHT22;7764;51.430;6.840;2023-07-28T04:10:35;18.60;99.90
15328;DHT22;7764;51.430;6.840;2023-07-28T04:13:02;18.60;99.90
15328;DHT22;7764;51.430;6.840;2023-07-28T04:15:29;18.60;99.90
15328;DHT22;7764;51.430;6.840;2023-07-28T04:17:56;18.60;99.90
15328;DHT22;7764;51.430;6.840;2023-07-28T04:20:24;18.60;99.90
15328;DHT22;7764;51.430;6.840;2023-07-28T04:22:51;18.60;99.90
15328;DHT22;7764;51.430;6.840;2023-07-28T04:25:17;18.60;99.90
15328;DHT22;7764;51.430;6.840;2023-07-28T04:27:44;18.60;99.90
15328;DHT22;7764;51.430;6.840;2023-07-28T04:30:11;18.70;99.90
15328;DHT22;7764;51.430;6.840;2023-07-28T04:32:38;18.70;99.90
15328;DHT22;7764;51.430;6.840;2023-07-28T04:35:06;18.60;99.90
15328;DHT22;7764;51.430;6.840;2023-07-28T04:37:34;18.70;99.90
15328;DHT22;7764;51.430;6.840;2023-07-28T04:40:01;18.70;99.90
15328;DHT22;7764;51.430;6.840;2023-07-28T04:42:29;18.60;99.90
15328;DHT22;7764;51.430;6.840;2023-07-28T04:44:55;18.60;99.90
15328;DHT22;7764;51.430;6.840;2023-07-28T04:47:22;18.70;99.90
15328;DHT22;7764;51.430;6.840;2023-07-28T04:49:49;18.70;99.90
15328;DHT22;7764;51.430;6.840;2023-07-28T04:52:16;18.70;99.90
15328;DHT22;7764;51.430;6.840;2023-07-28T04:54:44;18.80;99.90
15328;DHT22;7764;51.430;6.840;2023-07-28T04:57:11;18.80;99.90
15328;DHT22;7764;51.430;6.840;2023-07-28T04:59:38;18.80;99.90
15328;DHT22;7764;51.430;6.840;2023-07-28T05:02:05;18.80;99.90
15328;DHT22;7764;51.430;6.840;2023-07-28T05:04:32;18.80;99.90
15328;DHT22;7764;51.430;6.840;2023-07-28T05:06:59;18.80;99.90
15328;DHT22;7764;51.430;6.840;2023-07-28T05:09:26;18.80;99.90
15328;DHT22;7764;51.430;6.840;2023-07-28T05:11:55;18.90;99.90
15328;DHT22;7764;51.430;6.840;2023-07-28T05:14:21;18.90;99.90
15328;DHT22;7764;51.430;6.840;2023-07-28T05:16:48;18.90;99.90
15328;DHT22;7764;51.430;6.840;2023-07-28T05:19:15;18.80;99.90
15328;DHT22;7764;51.430;6.840;2023-07-28T05:21:42;18.70;99.90
15328;DHT22;7764;51.430;6.840;2023-07-28T05:24:09;18.90;99.90
15328;DHT22;7764;51.430;6.840;2023-07-28T05:26:36;19.00;99.90
15328;DHT22;7764;51.430;6.840;2023-07-28T05:29:04;19.00;99.90
15328;DHT22;7764;51.430;6.840;2023-07-28T05:31:31;18.90;99.90
15328;DHT22;7764;51.430;6.840;2023-07-28T06:01:02;19.10;99.90
15328;DHT22;7764;51.430;6.840;2023-07-28T06:03:30;19.20;99.90
15328;DHT22;7764;51.430;6.840;2023-07-28T06:05:57;19.20;99.90
15328;DHT22;7764;51.430;6.840;2023-07-28T06:08:24;19.20;99.90
15328;DHT22;7764;51.430;6.840;2023-07-28T06:10:51;19.40;99.90
15328;DHT22;7764;51.430;6.840;2023-07-28T06:13:17;19.30;99.90
15328;DHT22;7764;51.430;6.840;2023-07-28T06:15:44;19.30;99.90
15328;DHT22;7764;51.430;6.840;2023-07-28T06:18:11;19.30;99.90
15328;DHT22;7764;51.430;6.840;2023-07-28T06:20:41;19.30;99.90
15328;DHT22;7764;51.430;6.840;2023-07-28T06:23:08;19.30;99.90
15328;DHT22;7764;51.430;6.840;2023-07-28T06:25:35;19.30;99.90
15328;DHT22;7764;51.430;6.840;2023-07-28T06:28:04;19.30;99.90
15328;DHT22;7764;51.430;6.840;2023-07-28T06:30:30;19.30;99.90
15328;DHT22;7764;51.430;6.840;2023-07-28T06:32:57;19.30;99.90
15328;DHT22;7764;51.430;6.840;2023-07-28T06:35:24;19.40;99.90
15328;DHT22;7764;51.430;6.840;2023-07-28T06:37:52;19.40;99.90
15328;DHT22;7764;51.430;6.840;2023-07-28T06:40:19;19.40;99.90
15328;DHT22;7764;51.430;6.840;2023-07-28T06:42:46;19.40;99.90
15328;DHT22;7764;51.430;6.840;2023-07-28T06:45:13;19.40;99.90
15328;DHT22;7764;51.430;6.840;2023-07-28T06:47:40;19.40;99.90
15328;DHT22;7764;51.430;6.840;2023-07-28T06:50:08;19.40;99.90
15328;DHT22;7764;51.430;6.840;2023-07-28T06:52:35;19.50;99.90
15328;DHT22;7764;51.430;6.840;2023-07-28T06:55:04;19.50;99.90
15328;DHT22;7764;51.430;6.840;2023-07-28T06:57:31;19.60;99.90
15328;DHT22;7764;51.430;6.840;2023-07-28T06:59:57;19.40;99.90
15328;DHT22;7764;51.430;6.840;2023-07-28T07:02:25;19.50;99.90
15328;DHT22;7764;51.430;6.840;2023-07-28T07:04:52;19.60;99.90
15328;DHT22;7764;51.430;6.840;2023-07-28T07:07:19;19.60;99.90
15328;DHT22;7764;51.430;6.840;2023-07-28T07:09:46;19.80;99.90
15328;DHT22;7764;51.430;6.840;2023-07-28T07:12:14;19.90;99.90
15328;DHT22;7764;51.430;6.840;2023-07-28T07:14:41;19.90;99.90
15328;DHT22;7764;51.430;6.840;2023-07-28T07:17:08;20.00;99.90
15328;DHT22;7764;51.430;6.840;2023-07-28T07:19:35;20.10;99.90
15328;DHT22;7764;51.430;6.840;2023-07-28T07:22:02;20.20;99.90
15328;DHT22;7764;51.430;6.840;2023-07-28T07:24:28;20.20;99.90
15328;DHT22;7764;51.430;6.840;2023-07-28T07:26:55;20.30;99.90
15328;DHT22;7764;51.430;6.840;2023-07-28T07:29:23;20.30;99.90
15328;DHT22;7764;51.430;6.840;2023-07-28T07:31:50;20.40;99.90
15328;DHT22;7764;51.430;6.840;2023-07-28T07:34:21;20.30;99.90
15328;DHT22;7764;51.430;6.840;2023-07-28T07:36:48;20.40;99.90
15328;DHT22;7764;51.430;6.840;2023-07-28T07:39:15;20.40;99.90
15328;DHT22;7764;51.430;6.840;2023-07-28T07:41:42;20.50;99.90
15328;DHT22;7764;51.430;6.840;2023-07-28T07:44:09;20.60;99.90
15328;DHT22;7764;51.430;6.840;2023-07-28T07:46:37;20.80;99.90
15328;DHT22;7764;51.430;6.840;2023-07-28T07:49:04;20.80;99.90
15328;DHT22;7764;51.430;6.840;2023-07-28T07:51:31;20.80;99.90
15328;DHT22;7764;51.430;6.840;2023-07-28T07:53:59;20.80;99.90
15328;DHT22;7764;51.430;6.840;2023-07-28T07:56:26;20.80;99.90
15328;DHT22;7764;51.430;6.840;2023-07-28T07:58:53;20.90;99.90
15328;DHT22;7764;51.430;6.840;2023-07-28T08:01:20;20.80;99.90
15328;DHT22;7764;51.430;6.840;2023-07-28T08:03:48;20.70;99.90
15328;DHT22;7764;51.430;6.840;2023-07-28T08:06:15;20.60;99.90
15328;DHT22;7764;51.430;6.840;2023-07-28T08:08:43;20.70;99.90
15328;DHT22;7764;51.430;6.840;2023-07-28T08:11:10;20.60;99.90
15328;DHT22;7764;51.430;6.840;2023-07-28T08:13:37;20.60;99.90
15328;DHT22;7764;51.430;6.840;2023-07-28T08:16:05;20.70;99.90
15328;DHT22;7764;51.430;6.840;2023-07-28T08:18:33;20.80;99.90
15328;DHT22;7764;51.430;6.840;2023-07-28T08:21:02;20.90;99.90
15328;DHT22;7764;51.430;6.840;2023-07-28T08:23:29;21.00;99.90
15328;DHT22;7764;51.430;6.840;2023-07-28T08:25:56;21.10;99.90
15328;DHT22;7764;51.430;6.840;2023-07-28T08:28:24;21.40;99.90
15328;DHT22;7764;51.430;6.840;2023-07-28T08:30:54;21.70;99.90
15328;DHT22;7764;51.430;6.840;2023-07-28T08:33:22;21.80;99.90
15328;DHT22;7764;51.430;6.840;2023-07-28T08:35:49;21.90;99.90
15328;DHT22;7764;51.430;6.840;2023-07-28T08:38:17;21.80;99.90
15328;DHT22;7764;51.430;6.840;2023-07-28T08:40:44;21.80;99.90
15328;DHT22;7764;51.430;6.840;2023-07-28T08:43:11;21.70;99.90
15328;DHT22;7764;51.430;6.840;2023-07-28T08:45:37;21.70;99.90
15328;DHT22;7764;51.430;6.840;2023-07-28T08:48:05;21.60;99.90
15328;DHT22;7764;51.430;6.840;2023-07-28T08:50:32;21.60;99.90
15328;DHT22;7764;51.430;6.840;2023-07-28T08:52:58;21.60;99.90
15328;DHT22;7764;51.430;6.840;2023-07-28T08:55:27;21.60;99.90
15328;DHT22;7764;51.430;6.840;2023-07-28T08:57:54;21.60;99.90
15328;DHT22;7764;51.430;6.840;2023-07-28T09:00:21;21.70;99.90
15328;DHT22;7764;51.430;6.840;2023-07-28T09:02:51;21.70;99.90
15328;DHT22;7764;51.430;6.840;2023-07-28T09:05:18;21.70;99.90
15328;DHT22;7764;51.430;6.840;2023-07-28T09:07:46;21.80;99.90
15328;DHT22;7764;51.430;6.840;2023-07-28T09:10:13;21.80;99.90
15328;DHT22;7764;51.430;6.840;2023-07-28T09:12:47;21.70;99.90
15328;DHT22;7764;51.430;6.840;2023-07-28T09:15:14;21.80;99.90
15328;DHT22;7764;51.430;6.840;2023-07-28T09:17:43;22.00;99.90
15328;DHT22;7764;51.430;6.840;2023-07-28T09:20:13;22.30;99.90
15328;DHT22;7764;51.430;6.840;2023-07-28T09:22:40;22.50;99.90
15328;DHT22;7764;51.430;6.840;2023-07-28T09:25:12;22.90;99.90
15328;DHT22;7764;51.430;6.840;2023-07-28T09:27:39;22.90;99.90
15328;DHT22;7764;51.430;6.840;2023-07-28T09:30:08;22.80;99.90
15328;DHT22;7764;51.430;6.840;2023-07-28T09:32:35;22.50;99.90
15328;DHT22;7764;51.430;6.840;2023-07-28T09:35:07;22.30;99.90
15328;DHT22;7764;51.430;6.840;2023-07-28T09:37:37;22.50;99.90
15328;DHT22;7764;51.430;6.840;2023-07-28T09:40:07;22.20;99.90
15328;DHT22;7764;51.430;6.840;2023-07-28T09:42:37;22.50;99.90
15328;DHT22;7764;51.430;6.840;2023-07-28T09:45:05;23.00;99.90
15328;DHT22;7764;51.430;6.840;2023-07-28T09:47:34;23.00;99.90
15328;DHT22;7764;51.430;6.840;2023-07-28T09:50:03;23.10;99.90
15328;DHT22;7764;51.430;6.840;2023-07-28T09:55:04;22.90;99.90
15328;DHT22;7764;51.430;6.840;2023-07-28T09:57:36;23.20;99.90
15328;DHT22;7764;51.430;6.840;2023-07-28T10:02:33;23.00;99.90
15328;DHT22;7764;51.430;6.840;2023-07-28T10:07:32;22.90;99.90
15328;DHT22;7764;51.430;6.840;2023-07-28T10:10:01;22.70;99.90
15328;DHT22;7764;51.430;6.840;2023-07-28T10:12:28;22.70;99.90
15328;DHT22;7764;51.430;6.840;2023-07-28T10:15:02;22.70;99.90
15328;DHT22;7764;51.430;6.840;2023-07-28T10:17:31;22.80;99.90
15328;DHT22;7764;51.430;6.840;2023-07-28T10:20:02;22.80;99.90
15328;DHT22;7764;51.430;6.840;2023-07-28T10:22:43;23.00;99.90
15328;DHT22;7764;51.430;6.840;2023-07-28T10:25:10;22.80;99.90
15328;DHT22;7764;51.430;6.840;2023-07-28T10:27:38;22.70;99.90
15328;DHT22;7764;51.430;6.840;2023-07-28T10:30:11;22.40;99.90
15328;DHT22;7764;51.430;6.840;2023-07-28T10:32:40;22.30;99.90
15328;DHT22;7764;51.430;6.840;2023-07-28T10:35:21;22.30;99.90
15328;DHT22;7764;51.430;6.840;2023-07-28T10:37:48;22.60;99.90
15328;DHT22;7764;51.430;6.840;2023-07-28T10:40:23;22.70;99.90
15328;DHT22;7764;51.430;6.840;2023-07-28T10:42:51;22.90;99.90
15328;DHT22;7764;51.430;6.840;2023-07-28T10:45:18;23.00;99.90
15328;DHT22;7764;51.430;6.840;2023-07-28T10:47:45;23.20;99.90
15328;DHT22;7764;51.430;6.840;2023-07-28T23:11:31;20.10;99.90
15328;DHT22;7764;51.430;6.840;2023-07-28T23:13:58;20.00;99.90
15328;DHT22;7764;51.430;6.840;2023-07-28T23:16:25;20.00;99.90
15328;DHT22;7764;51.430;6.840;2023-07-28T23:18:52;19.90;99.90
15328;DHT22;7764;51.430;6.840;2023-07-28T23:21:19;19.80;99.90
15328;DHT22;7764;51.430;6.840;2023-07-28T23:23:47;19.80;99.90
15328;DHT22;7764;51.430;6.840;2023-07-28T23:26:13;19.60;99.90
15328;DHT22;7764;51.430;6.840;2023-07-28T23:28:42;19.70;99.90
15328;DHT22;7764;51.430;6.840;2023-07-28T23:31:13;19.70;99.90
15328;DHT22;7764;51.430;6.840;2023-07-28T23:33:39;19.70;99.90
15328;DHT22;7764;51.430;6.840;2023-07-28T23:36:07;19.60;99.90
15328;DHT22;7764;51.430;6.840;2023-07-28T23:38:34;19.60;99.90
15328;DHT22;7764;51.430;6.840;2023-07-28T23:41:01;19.80;99.90
15328;DHT22;7764;51.430;6.840;2023-07-28T23:43:28;19.50;99.90
15328;DHT22;7764;51.430;6.840;2023-07-28T23:45:56;19.60;99.90
15328;DHT22;7764;51.430;6.840;2023-07-28T23:48:24;19.40;99.90
15328;DHT22;7764;51.430;6.840;2023-07-28T23:50:51;19.40;99.90
15328;DHT22;7764;51.430;6.840;2023-07-28T23:53:19;19.40;99.90
15328;DHT22;7764;51.430;6.840;2023-07-28T23:55:46;19.40;99.90
15328;DHT22;7764;51.430;6.840;2023-07-28T23:58:13;19.40;99.90
